createdAt,value
2022-10-25T00:01:18.607Z,811.57
2022-10-25T00:03:46.825Z,793.73
2022-10-25T00:06:17.030Z,801.53
2022-10-25T00:08:45.405Z,757.63
2022-10-25T00:11:19.818Z,764.97
2022-10-25T00:13:49.688Z,798.17
2022-10-25T00:16:20.198Z,783.67
2022-10-25T00:18:48.326Z,811.43
2022-10-25T00:21:16.410Z,798.27
2022-10-25T00:23:44.499Z,795.03
2022-10-25T00:26:12.877Z,792.77
2022-10-25T00:28:42.431Z,774.40
2022-10-25T00:31:13.394Z,807.23
2022-10-25T00:33:42.342Z,802.27
2022-10-25T00:36:12.315Z,801.13
2022-10-25T00:38:40.717Z,807.63
2022-10-25T00:41:09.886Z,799.13
2022-10-25T00:43:40.361Z,805.07
2022-10-25T00:46:14.129Z,792.23
2022-10-25T00:48:43.329Z,808.60
2022-10-25T00:51:11.444Z,786.17
2022-10-25T00:53:39.617Z,784.70
2022-10-25T00:56:13.576Z,796.57
2022-10-25T00:58:42.225Z,777.30
2022-10-25T01:01:11.767Z,774.77
2022-10-25T01:03:41.041Z,771.43
2022-10-25T01:06:15.422Z,792.83
2022-10-25T01:08:44.392Z,794.53
2022-10-25T01:11:12.955Z,781.20
2022-10-25T01:13:41.117Z,790.63
2022-10-25T01:16:17.524Z,792.20
2022-10-25T01:18:52.443Z,793.27
2022-10-25T01:21:41.383Z,815.30
2022-10-25T01:24:46.366Z,810.53
2022-10-25T01:27:38.206Z,793.83
2022-10-25T01:30:09.574Z,788.47
2022-10-25T01:32:43.703Z,782.07
2022-10-25T01:35:18.763Z,805.87
2022-10-25T01:37:57.928Z,813.57
2022-10-25T01:40:30.050Z,785.83
2022-10-25T01:43:02.539Z,812.03
2022-10-25T01:45:32.978Z,814.47
2022-10-25T01:48:04.745Z,804.70
2022-10-25T01:50:36.142Z,817.93
2022-10-25T01:53:04.199Z,802.90
2022-10-25T01:55:36.176Z,771.87
2022-10-25T01:58:12.330Z,816.97
2022-10-25T02:01:23.486Z,797.13
2022-10-25T02:03:56.833Z,821.87
2022-10-25T02:06:30.785Z,812.60
2022-10-25T02:09:03.837Z,797.73
2022-10-25T02:11:33.290Z,802.70
2022-10-25T02:14:09.071Z,802.63
2022-10-25T02:16:39.276Z,814.90
2022-10-25T02:19:11.547Z,781.77
2022-10-25T02:21:39.847Z,804.30
2022-10-25T02:24:10.936Z,782.13
2022-10-25T02:26:40.412Z,797.17
2022-10-25T02:29:09.524Z,807.23
2022-10-25T02:31:39.015Z,770.20
2022-10-25T02:34:08.623Z,793.77
2022-10-25T02:36:36.880Z,785.70
2022-10-25T02:39:05.569Z,777.17
2022-10-25T02:45:52.218Z,827.43
2022-10-25T02:48:21.543Z,783.47
2022-10-25T02:50:51.089Z,752.33
2022-10-25T02:53:19.211Z,794.90
2022-10-25T02:55:47.245Z,784.40
2022-10-25T02:58:15.336Z,795.83
2022-10-25T03:00:43.502Z,783.13
2022-10-25T03:03:11.602Z,794.80
2022-10-25T03:05:39.676Z,806.33
2022-10-25T03:08:09.193Z,813.00
2022-10-25T03:10:37.931Z,808.27
2022-10-25T03:13:06.059Z,778.77
2022-10-25T03:15:34.168Z,816.87
2022-10-25T03:18:02.197Z,816.27
2022-10-25T03:20:30.297Z,804.33
2022-10-25T03:22:58.354Z,804.57
2022-10-25T03:25:27.767Z,826.87
2022-10-25T03:27:55.884Z,800.00
2022-10-25T03:30:24.113Z,813.87
2022-10-25T03:32:52.286Z,827.17
2022-10-25T03:35:20.463Z,809.20
2022-10-25T03:37:49.182Z,793.27
2022-10-25T03:40:17.828Z,794.67
2022-10-25T03:42:47.366Z,802.93
2022-10-25T03:45:15.423Z,794.37
2022-10-25T03:47:43.526Z,778.33
2022-10-25T03:50:12.190Z,793.87
2022-10-25T03:52:40.421Z,768.07
2022-10-25T03:55:09.266Z,783.13
2022-10-25T03:57:37.365Z,755.20
2022-10-25T04:00:07.751Z,768.37
2022-10-25T04:02:41.977Z,788.87
2022-10-25T04:05:10.447Z,798.63
2022-10-25T04:07:38.446Z,754.87
2022-10-25T04:10:07.417Z,768.07
2022-10-25T04:12:35.583Z,784.87
2022-10-25T04:15:03.808Z,776.67
2022-10-25T04:17:33.260Z,771.77
2022-10-25T04:20:01.280Z,763.70
2022-10-25T04:22:29.474Z,768.00
2022-10-25T04:24:57.528Z,789.70
2022-10-25T04:27:25.638Z,766.87
2022-10-25T04:29:53.777Z,755.33
2022-10-25T04:32:21.853Z,785.17
2022-10-25T04:34:51.343Z,779.80
2022-10-25T04:37:19.455Z,768.97
2022-10-25T04:39:47.860Z,811.23
2022-10-25T04:42:15.860Z,792.80
2022-10-25T04:44:43.888Z,816.17
2022-10-25T04:47:12.010Z,795.90
2022-10-25T04:49:40.124Z,817.83
2022-10-25T04:52:09.737Z,826.13
2022-10-25T04:54:38.026Z,819.33
2022-10-25T04:57:07.190Z,813.87
2022-10-25T04:59:35.374Z,800.50
2022-10-25T05:02:03.486Z,801.03
2022-10-25T05:04:31.759Z,801.27
2022-10-25T05:06:59.837Z,815.17
2022-10-25T05:09:30.150Z,815.37
2022-10-25T05:11:58.756Z,805.40
2022-10-25T05:14:27.187Z,831.67
2022-10-25T05:16:55.873Z,804.97
2022-10-25T05:19:27.990Z,839.97
2022-10-25T05:21:56.796Z,827.43
2022-10-25T05:24:26.520Z,791.07
2022-10-25T05:26:56.957Z,813.63
2022-10-25T05:29:25.190Z,801.70
2022-10-25T05:31:53.822Z,810.93
2022-10-25T05:34:22.147Z,796.83
2022-10-25T05:36:52.756Z,806.90
2022-10-25T05:39:21.179Z,779.83
2022-10-25T05:41:49.832Z,790.60
2022-10-25T05:44:19.441Z,772.00
2022-10-25T05:46:47.626Z,789.93
2022-10-25T05:49:15.866Z,779.97
2022-10-25T05:51:44.096Z,766.40
2022-10-25T05:54:14.054Z,734.57
2022-10-25T05:56:42.926Z,728.10
2022-10-25T05:59:13.675Z,735.63
2022-10-25T06:01:45.287Z,691.37
2022-10-25T06:04:14.796Z,703.57
2022-10-25T06:06:45.008Z,686.00
2022-10-25T06:09:14.285Z,732.97
2022-10-25T06:11:42.375Z,699.23
2022-10-25T06:14:11.483Z,675.57
2022-10-25T06:16:40.370Z,679.27
2022-10-25T06:19:10.375Z,701.40
2022-10-25T06:21:38.801Z,683.53
2022-10-25T06:24:07.439Z,660.57
2022-10-25T06:26:35.642Z,681.67
2022-10-25T06:29:05.681Z,679.77
2022-10-25T06:31:34.228Z,659.80
2022-10-25T06:34:02.567Z,680.07
2022-10-25T06:36:32.461Z,678.80
2022-10-25T06:39:05.645Z,680.00
2022-10-25T06:41:38.013Z,692.27
2022-10-25T06:44:09.768Z,672.50
2022-10-25T06:47:04.790Z,690.70
2022-10-25T06:49:28.521Z,704.80
2022-10-25T06:51:58.033Z,702.27
2022-10-25T06:54:26.836Z,710.30
2022-10-25T06:56:59.697Z,722.63
2022-10-25T06:59:28.314Z,704.77
2022-10-25T07:01:57.480Z,695.47
2022-10-25T07:04:25.935Z,712.23
2022-10-25T07:06:55.387Z,688.77
2022-10-25T07:09:26.289Z,688.77
2022-10-25T07:11:56.911Z,729.07
2022-10-25T07:14:25.220Z,735.63
2022-10-25T07:16:53.358Z,698.00
2022-10-25T07:19:23.225Z,674.63
2022-10-25T07:21:51.692Z,614.53
2022-10-25T07:24:22.287Z,595.00
2022-10-25T07:26:57.765Z,627.33
2022-10-25T07:29:30.607Z,594.80
2022-10-25T07:32:24.241Z,588.70
2022-10-25T07:34:59.305Z,577.23
2022-10-25T07:37:27.682Z,591.50
2022-10-25T07:40:08.694Z,549.33
2022-10-25T07:42:40.323Z,562.27
2022-10-25T07:45:09.774Z,599.70
2022-10-25T07:47:37.928Z,558.07
2022-10-25T07:50:06.790Z,563.03
2022-10-25T07:52:34.913Z,569.00
2022-10-25T07:55:03.026Z,530.30
2022-10-25T07:57:31.185Z,529.33
2022-10-25T08:00:00.880Z,548.87
2022-10-25T08:02:29.033Z,539.17
2022-10-25T08:04:57.112Z,531.97
2022-10-25T08:07:25.656Z,557.57
2022-10-25T08:09:53.866Z,552.80
2022-10-25T08:12:22.717Z,552.77
2022-10-25T08:14:51.023Z,553.77
2022-10-25T08:17:20.629Z,572.63
2022-10-25T08:19:51.195Z,538.47
2022-10-25T08:22:19.766Z,544.57
2022-10-25T08:24:47.862Z,523.13
2022-10-25T08:27:16.097Z,520.10
2022-10-25T08:29:44.286Z,517.53
2022-10-25T08:32:12.486Z,515.13
2022-10-25T08:34:42.130Z,523.37
2022-10-25T08:37:11.891Z,534.60
2022-10-25T08:39:40.088Z,531.23
2022-10-25T08:42:08.272Z,537.93
2022-10-25T08:44:43.977Z,547.13
2022-10-25T08:47:15.292Z,541.27
2022-10-25T08:49:51.024Z,527.33
2022-10-25T08:52:23.071Z,525.57
2022-10-25T08:54:51.444Z,546.93
2022-10-25T08:57:24.321Z,572.27
2022-10-25T08:59:54.847Z,541.20
2022-10-25T09:02:35.427Z,553.10
2022-10-25T09:05:05.681Z,522.40
2022-10-25T09:07:45.942Z,554.47
2022-10-25T09:10:24.548Z,538.07
2022-10-25T09:12:58.101Z,561.47
2022-10-25T09:15:40.480Z,561.00
2022-10-25T09:18:17.039Z,548.47
2022-10-25T09:20:50.966Z,553.13
2022-10-25T09:23:28.058Z,538.60
2022-10-25T09:26:03.218Z,524.10
2022-10-25T09:28:41.757Z,534.17
2022-10-25T09:31:12.590Z,526.70
2022-10-25T09:33:42.668Z,554.37
2022-10-25T09:36:13.278Z,535.53
2022-10-25T09:38:44.897Z,533.27
2022-10-25T09:41:17.380Z,554.70
2022-10-25T09:43:49.667Z,554.27
2022-10-25T09:46:20.482Z,546.60
2022-10-25T09:48:55.585Z,592.03
2022-10-25T09:51:30.902Z,561.87
2022-10-25T09:53:59.214Z,576.23
2022-10-25T09:56:27.496Z,602.30
2022-10-25T09:59:08.804Z,585.87
2022-10-25T10:01:38.660Z,598.83
2022-10-25T10:04:21.447Z,594.33
2022-10-25T10:06:52.219Z,595.50
2022-10-25T10:09:20.594Z,594.60
2022-10-25T10:11:49.091Z,617.10
2022-10-25T10:14:25.682Z,563.23
2022-10-25T10:16:56.281Z,594.83
2022-10-25T10:19:25.481Z,586.37
2022-10-25T10:21:57.797Z,574.47
2022-10-25T10:24:28.423Z,568.83
2022-10-25T10:26:58.748Z,599.50
2022-10-25T10:29:28.874Z,611.83
2022-10-25T10:31:59.422Z,601.63
2022-10-25T10:34:30.600Z,596.90
2022-10-25T10:37:16.079Z,607.87
2022-10-25T10:39:50.326Z,601.00
2022-10-25T10:42:20.010Z,622.73
2022-10-25T10:45:15.514Z,589.00
2022-10-25T10:47:46.223Z,566.63
2022-10-25T10:50:23.363Z,600.83
2022-10-25T10:53:00.130Z,593.33
2022-10-25T10:55:31.377Z,572.07
2022-10-25T10:58:03.431Z,584.23
2022-10-25T11:00:32.699Z,571.67
2022-10-25T11:03:01.079Z,618.47
2022-10-25T11:05:30.598Z,577.93
2022-10-25T11:08:01.660Z,576.07
2022-10-25T11:10:31.633Z,570.23
2022-10-25T11:13:16.154Z,571.97
2022-10-25T11:15:57.723Z,579.40
2022-10-25T11:18:31.653Z,593.87
2022-10-25T11:21:05.376Z,592.83
2022-10-25T11:23:40.142Z,570.27
2022-10-25T11:26:13.496Z,600.83
2022-10-25T11:28:46.897Z,574.60
2022-10-25T11:31:22.153Z,595.87
2022-10-25T11:34:01.793Z,588.47
2022-10-25T11:36:55.840Z,597.33
2022-10-25T11:39:34.924Z,632.47
2022-10-25T11:42:13.313Z,579.87
2022-10-25T11:45:05.317Z,623.00
2022-10-25T11:47:43.037Z,593.23
2022-10-25T11:50:21.689Z,590.23
2022-10-25T11:53:20.589Z,597.93
2022-10-25T11:55:54.062Z,595.27
2022-10-25T11:58:31.740Z,608.53
2022-10-25T12:01:06.795Z,595.70
2022-10-25T12:03:49.382Z,572.20
2022-10-25T12:06:23.177Z,608.77
2022-10-25T12:09:02.148Z,583.50
2022-10-25T12:11:32.940Z,607.50
2022-10-25T12:14:05.349Z,599.77
2022-10-25T12:16:34.919Z,577.60
2022-10-25T12:19:09.095Z,590.93
2022-10-25T12:21:43.573Z,570.17
2022-10-25T12:24:18.314Z,579.37
2022-10-25T12:26:48.303Z,594.60
2022-10-25T12:29:19.369Z,609.27
2022-10-25T12:31:50.380Z,592.77
2022-10-25T12:34:21.079Z,587.87
2022-10-25T12:36:52.872Z,599.70
2022-10-25T12:39:24.366Z,566.60
2022-10-25T12:41:57.817Z,585.40
2022-10-25T12:44:38.727Z,582.93
2022-10-25T12:47:17.548Z,576.80
2022-10-25T12:49:58.379Z,598.10
2022-10-25T12:52:34.828Z,597.13
2022-10-25T12:55:43.184Z,626.77
2022-10-25T12:58:45.316Z,579.60
2022-10-25T13:01:29.260Z,604.07
2022-10-25T13:04:30.085Z,582.03
2022-10-25T13:07:17.176Z,587.97
2022-10-25T13:09:50.631Z,598.57
2022-10-25T13:12:50.627Z,584.63
2022-10-25T13:15:20.892Z,593.07
2022-10-25T13:18:06.588Z,592.83
2022-10-25T13:20:48.979Z,571.60
2022-10-25T13:24:02.997Z,601.50
2022-10-25T13:27:15.438Z,593.07
2022-10-25T13:30:04.007Z,578.23
2022-10-25T13:32:35.785Z,600.10
2022-10-25T13:35:04.548Z,610.73
2022-10-25T13:37:43.866Z,583.93
2022-10-25T13:40:26.192Z,600.07
2022-10-25T13:43:03.077Z,581.27
2022-10-25T13:45:35.952Z,593.00
2022-10-25T13:48:17.382Z,613.83
2022-10-25T13:50:47.095Z,585.40
2022-10-25T13:53:22.028Z,608.30
2022-10-25T13:55:59.348Z,611.07
2022-10-25T13:58:46.077Z,587.10
2022-10-25T14:01:55.893Z,607.77
2022-10-25T14:04:39.277Z,556.33
2022-10-25T14:07:45.031Z,575.53
2022-10-25T14:10:37.163Z,584.27
2022-10-25T14:13:17.809Z,585.73
2022-10-25T14:15:50.616Z,573.43
2022-10-25T14:18:22.502Z,600.27
2022-10-25T14:20:55.079Z,610.20
2022-10-25T14:23:24.529Z,600.87
2022-10-25T14:25:55.814Z,592.07
2022-10-25T14:28:25.847Z,605.53
2022-10-25T14:30:55.877Z,609.27
2022-10-25T14:33:26.693Z,604.90
2022-10-25T14:35:57.722Z,593.43
2022-10-25T14:38:27.743Z,600.10
2022-10-25T14:40:57.479Z,623.77
2022-10-25T14:43:31.421Z,603.67
2022-10-25T14:46:05.297Z,616.57
2022-10-25T14:48:34.423Z,634.17
2022-10-25T14:51:08.995Z,662.60
2022-10-25T14:53:38.436Z,622.03
2022-10-25T14:56:07.347Z,625.13
2022-10-25T14:58:41.349Z,616.63
2022-10-25T15:01:11.938Z,664.30
2022-10-25T15:03:42.609Z,640.70
2022-10-25T15:06:13.235Z,653.50
2022-10-25T15:08:42.652Z,647.07
2022-10-25T15:11:16.424Z,630.53
2022-10-25T15:13:45.716Z,651.70
2022-10-25T15:16:31.456Z,618.63
2022-10-25T15:19:08.004Z,622.13
2022-10-25T15:21:42.176Z,622.20
2022-10-25T15:24:15.707Z,642.60
2022-10-25T15:26:58.790Z,632.07
2022-10-25T15:29:31.295Z,589.00
2022-10-25T15:31:59.523Z,635.50
2022-10-25T15:34:27.507Z,644.03
2022-10-25T15:36:57.381Z,624.00
2022-10-25T15:39:27.706Z,657.93
2022-10-25T15:41:55.836Z,625.07
2022-10-25T15:44:24.256Z,630.90
2022-10-25T15:46:52.231Z,595.93
2022-10-25T15:49:20.634Z,627.37
2022-10-25T15:51:48.937Z,627.00
2022-10-25T15:54:19.854Z,593.47
2022-10-25T15:56:48.813Z,602.60
2022-10-25T16:01:52.675Z,624.60
2022-10-25T16:04:21.241Z,633.77
2022-10-25T16:06:49.610Z,613.13
2022-10-25T16:09:18.944Z,636.47
2022-10-25T16:11:50.562Z,626.17
2022-10-25T16:14:22.174Z,655.47
2022-10-25T16:16:50.943Z,659.07
2022-10-25T16:19:21.911Z,630.07
2022-10-25T16:21:50.159Z,656.27
2022-10-25T16:24:20.223Z,654.57
2022-10-25T16:26:50.177Z,646.33
2022-10-25T16:29:19.600Z,642.07
2022-10-25T16:31:47.924Z,638.40
2022-10-25T16:34:17.476Z,647.30
2022-10-25T16:36:46.078Z,678.83
2022-10-25T16:39:14.679Z,662.93
2022-10-25T16:41:46.205Z,685.63
2022-10-25T16:44:16.662Z,665.63
2022-10-25T16:46:45.443Z,657.47
2022-10-25T16:49:13.769Z,677.10
2022-10-25T16:51:42.034Z,668.90
2022-10-25T16:54:11.486Z,672.77
2022-10-25T16:56:39.582Z,678.30
2022-10-25T16:59:09.282Z,687.37
2022-10-25T17:01:38.989Z,691.17
2022-10-25T17:04:10.795Z,677.63
2022-10-25T17:06:42.627Z,716.33
2022-10-25T17:09:11.447Z,683.20
2022-10-25T17:11:39.578Z,698.67
2022-10-25T17:14:10.156Z,696.60
2022-10-25T17:16:39.906Z,681.90
2022-10-25T17:19:08.015Z,675.23
2022-10-25T17:21:36.138Z,681.87
2022-10-25T17:24:05.054Z,701.77
2022-10-25T17:26:33.488Z,692.43
2022-10-25T17:29:01.985Z,706.33
2022-10-25T17:31:35.419Z,702.80
2022-10-25T17:34:04.196Z,702.53
2022-10-25T17:36:32.693Z,687.87
2022-10-25T17:39:01.286Z,671.13
2022-10-25T17:41:29.446Z,686.50
2022-10-25T17:43:57.630Z,693.30
2022-10-25T17:46:27.750Z,688.23
2022-10-25T17:49:03.114Z,701.07
2022-10-25T17:51:31.822Z,658.87
2022-10-25T17:54:00.078Z,692.33
2022-10-25T17:56:29.309Z,694.73
2022-10-25T17:59:03.158Z,682.03
2022-10-25T18:01:35.243Z,693.10
2022-10-25T18:04:13.079Z,682.97
2022-10-25T18:06:50.453Z,684.30
2022-10-25T18:09:20.082Z,678.73
2022-10-25T18:11:50.577Z,687.53
2022-10-25T18:14:21.118Z,691.83
2022-10-25T18:16:51.401Z,673.00
2022-10-25T18:19:21.628Z,692.23
2022-10-25T18:21:49.888Z,680.80
2022-10-25T18:24:18.124Z,704.87
2022-10-25T18:26:46.334Z,708.43
2022-10-25T18:29:14.974Z,702.87
2022-10-25T18:31:43.057Z,717.23
2022-10-25T18:34:14.123Z,695.23
2022-10-25T18:36:50.946Z,707.67
2022-10-25T18:39:20.462Z,709.13
2022-10-25T18:41:50.547Z,704.87
2022-10-25T18:44:19.840Z,695.97
2022-10-25T18:46:49.915Z,718.83
2022-10-25T18:49:19.541Z,714.60
2022-10-25T18:51:53.459Z,712.43
2022-10-25T18:54:40.287Z,720.60
2022-10-25T18:57:11.483Z,706.97
2022-10-25T18:59:42.640Z,712.77
2022-10-25T19:02:14.167Z,718.47
2022-10-25T19:04:43.645Z,750.20
2022-10-25T19:07:15.402Z,701.93
2022-10-25T19:09:44.443Z,714.70
2022-10-25T19:12:14.259Z,733.63
2022-10-25T19:14:43.658Z,733.80
2022-10-25T19:17:13.245Z,729.90
2022-10-25T19:19:42.568Z,723.30
2022-10-25T19:22:11.751Z,719.23
2022-10-25T19:24:42.590Z,735.37
2022-10-25T19:27:12.100Z,746.50
2022-10-25T19:29:49.943Z,730.43
2022-10-25T19:32:20.470Z,745.60
2022-10-25T19:37:23.080Z,761.00
2022-10-25T19:39:58.999Z,735.30
2022-10-25T19:42:28.588Z,748.70
2022-10-25T19:45:01.253Z,753.13
2022-10-25T19:47:32.748Z,738.70
2022-10-25T19:50:09.129Z,740.70
2022-10-25T19:52:40.389Z,747.80
2022-10-25T19:55:11.613Z,764.90
2022-10-25T19:57:44.794Z,768.93
2022-10-25T20:00:16.077Z,762.77
2022-10-25T20:02:45.853Z,736.03
2022-10-25T20:05:21.048Z,758.67
2022-10-25T20:07:55.162Z,714.90
2022-10-25T20:10:29.951Z,738.10
2022-10-25T20:13:01.764Z,717.73
2022-10-25T20:15:31.109Z,713.53
2022-10-25T20:18:03.214Z,732.83
2022-10-25T20:20:32.757Z,738.03
2022-10-25T20:23:05.285Z,729.90
2022-10-25T20:25:36.702Z,736.33
2022-10-25T20:28:06.446Z,704.63
2022-10-25T20:30:38.149Z,724.03
2022-10-25T20:33:08.641Z,727.40
2022-10-25T20:35:45.911Z,715.23
2022-10-25T20:38:17.178Z,710.67
2022-10-25T20:40:52.556Z,706.97
2022-10-25T20:43:23.668Z,715.60
2022-10-25T20:45:54.586Z,713.47
2022-10-25T20:48:23.636Z,693.93
2022-10-25T20:50:54.122Z,696.80
2022-10-25T20:53:24.348Z,695.57
2022-10-25T20:55:58.922Z,722.40
2022-10-25T20:58:32.190Z,700.40
2022-10-25T21:01:08.012Z,690.10
2022-10-25T21:03:38.141Z,670.00
2022-10-25T21:06:15.153Z,725.50
2022-10-25T21:08:43.897Z,695.27
2022-10-25T21:11:14.340Z,700.70
2022-10-25T21:13:43.035Z,698.63
2022-10-25T21:16:12.895Z,701.57
2022-10-25T21:18:42.485Z,720.23
2022-10-25T21:21:12.863Z,715.77
2022-10-25T21:23:41.905Z,697.03
2022-10-25T21:26:11.429Z,723.30
2022-10-25T21:28:42.773Z,707.90
2022-10-25T21:31:12.215Z,700.20
2022-10-25T21:33:41.744Z,738.47
2022-10-25T21:36:12.271Z,739.83
2022-10-25T21:38:40.832Z,740.03
2022-10-25T21:41:11.016Z,721.53
2022-10-25T21:43:43.293Z,761.73
2022-10-25T21:46:11.827Z,760.30
2022-10-25T21:48:40.077Z,748.73
2022-10-25T21:51:08.224Z,751.87
2022-10-25T21:53:36.483Z,752.90
2022-10-25T21:56:11.161Z,771.40
2022-10-25T21:58:41.925Z,733.83
2022-10-25T22:01:11.192Z,768.47
2022-10-25T22:03:39.494Z,761.33
2022-10-25T22:06:08.144Z,766.97
2022-10-25T22:08:36.114Z,761.20
2022-10-25T22:11:06.499Z,754.73
2022-10-25T22:13:34.884Z,752.33
2022-10-25T22:16:06.691Z,747.57
2022-10-25T22:18:35.243Z,755.00
2022-10-25T22:21:05.771Z,770.47
2022-10-25T22:23:34.456Z,760.27
2022-10-25T22:26:03.513Z,758.37
2022-10-25T22:28:33.346Z,756.43
2022-10-25T22:31:06.983Z,742.97
2022-10-25T22:33:35.579Z,757.53
2022-10-25T22:38:32.228Z,781.97
2022-10-25T22:41:01.473Z,779.53
2022-10-25T22:43:30.063Z,761.03
2022-10-25T22:46:01.623Z,760.57
2022-10-25T22:48:33.159Z,767.80
2022-10-25T22:51:01.651Z,766.37
2022-10-25T22:53:30.237Z,753.33
2022-10-25T22:56:00.088Z,777.70
2022-10-25T22:58:29.520Z,776.33
2022-10-25T23:01:00.505Z,744.47
2022-10-25T23:03:28.628Z,785.03
2022-10-25T23:06:02.164Z,744.27
2022-10-25T23:08:30.706Z,765.43
2022-10-25T23:11:00.165Z,794.00
2022-10-25T23:13:28.529Z,766.20
2022-10-25T23:15:56.609Z,744.07
2022-10-25T23:18:25.461Z,774.53
2022-10-25T23:20:54.622Z,765.53
2022-10-25T23:23:25.681Z,768.87
2022-10-25T23:25:54.511Z,772.33
2022-10-25T23:28:22.944Z,772.77
2022-10-25T23:30:51.027Z,763.47
2022-10-25T23:33:19.114Z,773.43
2022-10-25T23:35:47.202Z,756.07
2022-10-25T23:38:15.413Z,794.13
2022-10-25T23:40:47.990Z,768.43
2022-10-25T23:43:16.210Z,767.67
2022-10-25T23:45:44.322Z,771.63
2022-10-25T23:48:12.493Z,771.13
2022-10-25T23:50:40.628Z,788.27
2022-10-25T23:53:09.458Z,791.93
2022-10-25T23:55:38.747Z,793.40
2022-10-25T23:58:08.262Z,777.13
